Terminal Aerodrome Forecast
Issued by NWS

Home | Current Version | Previous Version | Text Only | Print | Product List | Glossary Off
Versions: 1 2 3 4 5 6 7 8 9 10 11 12 13 14

000
FTUS43 KBIS 251600 AAC
TAFMOT
TAF AMD
KMOT 251635Z 2517/2612 34014KT P6SM SCT030 OVC060
     FM251800 33013G18KT P6SM SKC
     FM260000 29009KT P6SM SKC=

USA.gov is the U.S. government's official web portal to all federal, state and local government web resources and services.